Time;durP1;ratioP1;P1;durP2;ratioP2;P2;SDS_P1;SDS_P2;PMS_P1;PMS_P2;Temp;Humidity;BMP_temperature;BMP_pressure;BME280_temperature;BME280_humidity;BME280_pressure;Samples;Min_cycle;Max_cycle;Signal;HPM_P1;HPM_P2
2022/03/06 00:02:07;;;;;;;;;;;;;;;3.24;60.00;102304.38;7396935;19;19925;-54
2022/03/06 00:04:36;;;;;;;;;;;;;;;3.26;59.57;102304.41;7392973;19;19918;-57
2022/03/06 00:07:04;;;;;;;;;;;;;;;3.33;59.78;102305.34;7396513;19;19930;-60
2022/03/06 00:09:36;;;;;;;;;;;;;;;3.32;59.40;102312.22;7391889;19;20520;-58
2022/03/06 00:12:05;;;;;;;;;;;;;;;3.30;59.85;102308.75;7392238;19;19938;-55
2022/03/06 00:14:33;;;;;;;;;;;;;;;3.29;59.61;102305.31;7395615;19;19985;-56
2022/03/06 00:17:02;;;;;;;;;;;;;;;3.26;59.67;102309.59;7391720;19;19918;-57
2022/03/06 00:19:30;;;;;;;;;;;;;;;3.16;60.36;102312.94;7389700;19;19919;-57
2022/03/06 00:21:59;;;;;;;;;;;;;;;3.16;60.40;102318.97;7391000;19;20347;-52
2022/03/06 00:24:27;;;;;;;;;;;;;;;3.01;60.72;102317.09;7391519;19;19922;-57
2022/03/06 00:26:58;;;;;;;;;;;;;;;3.01;60.80;102317.09;7391451;19;19922;-58
2022/03/06 00:29:27;;;;;;;;;;;;;;;2.85;60.94;102320.34;7390382;19;20215;-57
2022/03/06 00:31:56;;;;;;;;;;;;;;;2.77;61.91;102318.53;7391259;19;19911;-59
2022/03/06 00:34:24;;;;;;;;;;;;;;;2.87;61.29;102318.66;7390031;19;19930;-57
2022/03/06 00:36:53;;;;;;;;;;;;;;;2.88;61.27;102318.66;7390847;19;19927;-55
2022/03/06 00:39:21;;;;;;;;;;;;;;;2.61;61.70;102321.78;7389243;19;19927;-58
2022/03/06 00:41:50;;;;;;;;;;;;;;;2.51;62.42;102323.38;7390170;19;19919;-57
2022/03/06 00:44:21;;;;;;;;;;;;;;;2.33;62.61;102328.28;7392638;19;19937;-57
2022/03/06 00:46:50;;;;;;;;;;;;;;;2.38;63.32;102326.66;7390283;19;19914;-58
2022/03/06 00:49:18;;;;;;;;;;;;;;;2.17;63.51;102330.66;7388501;19;20340;-59
2022/03/06 00:51:47;;;;;;;;;;;;;;;2.21;63.70;102332.44;7390260;19;19923;-58
2022/03/06 00:54:16;;;;;;;;;;;;;;;2.28;63.56;102332.53;7390433;19;19910;-58
2022/03/06 00:56:44;;;;;;;;;;;;;;;2.25;63.04;102335.97;7390083;19;19922;-55
2022/03/06 00:59:13;;;;;;;;;;;;;;;2.23;63.88;102341.06;7391900;19;20240;-57
2022/03/06 01:01:44;;;;;;;;;;;;;;;2.26;63.43;102340.25;7389961;19;19930;-57
2022/03/06 01:04:13;;;;;;;;;;;;;;;2.39;63.14;102352.53;7390141;19;19923;-53
2022/03/06 01:06:41;;;;;;;;;;;;;;;2.50;62.27;102344.06;7389074;19;19915;-54
2022/03/06 01:09:10;;;;;;;;;;;;;;;2.25;63.07;102344.56;7388484;19;19932;-58
2022/03/06 01:11:38;;;;;;;;;;;;;;;2.16;62.98;102348.72;7390838;19;19925;-55
2022/03/06 01:14:07;;;;;;;;;;;;;;;2.04;63.52;102352.84;7393230;19;19915;-58
2022/03/06 01:16:36;;;;;;;;;;;;;;;1.96;64.15;102349.28;7389039;19;19914;-55
2022/03/06 01:19:07;;;;;;;;;;;;;;;2.03;63.82;102352.84;7388735;19;19924;-59
2022/03/06 01:21:35;;;;;;;;;;;;;;;2.11;63.47;102358.13;7390863;19;19915;-57
2022/03/06 01:24:04;;;;;;;;;;;;;;;2.12;63.64;102360.75;7388986;19;19934;-57
2022/03/06 01:26:33;;;;;;;;;;;;;;;2.10;63.65;102356.41;7389671;19;20324;-57
2022/03/06 01:29:01;;;;;;;;;;;;;;;2.12;63.78;102358.19;7389592;19;19918;-56
2022/03/06 01:31:30;;;;;;;;;;;;;;;2.06;63.50;102360.63;7389594;19;19933;-55
2022/03/06 01:33:59;;;;;;;;;;;;;;;2.04;63.87;102363.19;7388448;19;19921;-57
2022/03/06 01:36:30;;;;;;;;;;;;;;;2.25;63.28;102370.44;7384945;19;19919;-54
2022/03/06 01:38:59;;;;;;;;;;;;;;;2.14;63.57;102364.22;7387288;19;19925;-57
2022/03/06 01:41:28;;;;;;;;;;;;;;;2.03;63.58;102361.44;7387539;19;19915;-57
2022/03/06 01:43:56;;;;;;;;;;;;;;;2.11;63.07;102356.44;7392764;19;19930;-57
2022/03/06 01:46:25;;;;;;;;;;;;;;;2.05;63.45;102356.34;7388398;19;20018;-57
2022/03/06 01:48:54;;;;;;;;;;;;;;;1.90;63.92;102362.97;7388174;19;19910;-55
2022/03/06 01:51:22;;;;;;;;;;;;;;;1.87;64.25;102359.47;7388531;19;19930;-59
2022/03/06 01:53:53;;;;;;;;;;;;;;;2.00;63.67;102363.13;7389636;19;19926;-57
2022/03/06 01:56:22;;;;;;;;;;;;;;;2.13;63.08;102362.47;7389049;19;19930;-57
2022/03/06 01:58:51;;;;;;;;;;;;;;;2.13;63.15;102351.28;7391639;19;20011;-58
2022/03/06 02:01:20;;;;;;;;;;;;;;;1.94;63.06;102353.56;7389409;19;19926;-57
2022/03/06 02:03:49;;;;;;;;;;;;;;;1.84;63.85;102362.88;7387854;19;19928;-55
2022/03/06 02:06:18;;;;;;;;;;;;;;;1.84;63.90;102362.00;7387740;19;19980;-59
2022/03/06 02:08:47;;;;;;;;;;;;;;;1.84;64.08;102367.19;7386883;19;20305;-56
2022/03/06 02:11:19;;;;;;;;;;;;;;;1.90;63.86;102359.53;7388268;19;20356;-58
2022/03/06 02:13:47;;;;;;;;;;;;;;;1.89;63.60;102356.09;7392768;19;20244;-58
2022/03/06 02:16:16;;;;;;;;;;;;;;;1.94;63.77;102363.91;7396336;19;19921;-60
2022/03/06 02:18:45;;;;;;;;;;;;;;;1.92;63.41;102365.59;7398459;19;19949;-60
2022/03/06 02:21:16;;;;;;;;;;;;;;;1.89;63.24;102360.34;7391641;19;19925;-60
2022/03/06 02:23:45;;;;;;;;;;;;;;;1.89;63.39;102362.94;7392194;19;19942;-59
2022/03/06 02:26:13;;;;;;;;;;;;;;;1.94;63.34;102355.28;7391842;19;20324;-59
2022/03/06 02:28:43;;;;;;;;;;;;;;;1.77;63.47;102360.16;7389504;19;19926;-60
2022/03/06 02:31:13;;;;;;;;;;;;;;;1.68;64.11;102368.63;7387463;19;19954;-60
2022/03/06 02:33:41;;;;;;;;;;;;;;;1.51;64.12;102361.44;7387819;19;19918;-60
2022/03/06 02:36:10;;;;;;;;;;;;;;;1.48;64.77;102368.28;7385937;19;19926;-58
2022/03/06 02:38:41;;;;;;;;;;;;;;;1.40;65.07;102365.53;7386180;19;19915;-59
2022/03/06 02:41:09;;;;;;;;;;;;;;;1.54;64.41;102369.25;7387461;19;20340;-56
2022/03/06 02:43:38;;;;;;;;;;;;;;;1.59;64.55;102360.72;7387115;19;19929;-60
2022/03/06 02:46:06;;;;;;;;;;;;;;;1.49;64.58;102370.00;7388856;19;19915;-57
2022/03/06 02:48:35;;;;;;;;;;;;;;;1.53;64.36;102364.94;7386513;19;19929;-55
2022/03/06 02:51:05;;;;;;;;;;;;;;;1.55;64.50;102375.31;7386303;19;20277;-59
2022/03/06 02:53:34;;;;;;;;;;;;;;;1.65;63.98;102373.75;7389575;19;20043;-58
2022/03/06 02:56:06;;;;;;;;;;;;;;;1.61;63.95;102367.66;7395403;19;19939;-61
2022/03/06 02:58:35;;;;;;;;;;;;;;;1.36;64.94;102367.19;7395232;19;19929;-59
2022/03/06 03:01:04;;;;;;;;;;;;;;;1.48;64.67;102370.88;7399486;19;19918;-59
2022/03/06 03:03:40;;;;;;;;;;;;;;;1.28;65.06;102368.75;7399801;19;19915;-60
2022/03/06 03:06:09;;;;;;;;;;;;;;;1.18;65.48;102372.88;7399364;19;19923;-58
2022/03/06 03:08:37;;;;;;;;;;;;;;;1.28;65.38;102373.06;7400598;19;19915;-57
2022/03/06 03:11:09;;;;;;;;;;;;;;;1.34;64.93;102366.28;7399433;19;19928;-59
2022/03/06 03:13:37;;;;;;;;;;;;;;;1.36;64.73;102368.91;7398944;19;19915;-56
2022/03/06 03:16:06;;;;;;;;;;;;;;;1.20;65.05;102370.31;7393500;19;19915;-58
2022/03/06 03:18:34;;;;;;;;;;;;;;;0.97;65.63;102375.03;7393785;19;19925;-58
2022/03/06 03:21:03;;;;;;;;;;;;;;;1.02;66.07;102373.41;7400739;19;20228;-53
2022/03/06 03:23:32;;;;;;;;;;;;;;;1.16;65.72;102371.09;7403234;19;20351;-57
2022/03/06 03:26:00;;;;;;;;;;;;;;;1.10;65.89;102376.13;7407275;19;19910;-54
2022/03/06 03:28:31;;;;;;;;;;;;;;;1.03;66.41;102365.69;7401397;19;19930;-57
2022/03/06 03:31:00;;;;;;;;;;;;;;;1.17;65.71;102372.84;7394693;19;19950;-52
2022/03/06 03:33:29;;;;;;;;;;;;;;;1.08;65.34;102370.94;7392838;19;20216;-57
2022/03/06 03:35:57;;;;;;;;;;;;;;;1.16;65.15;102371.97;7391745;19;20328;-55
2022/03/06 03:38:26;;;;;;;;;;;;;;;1.12;65.25;102366.69;7395150;19;19911;-53
2022/03/06 03:40:54;;;;;;;;;;;;;;;1.12;65.33;102371.88;7392464;19;19934;-55
2022/03/06 03:43:23;;;;;;;;;;;;;;;1.18;65.10;102378.03;7392290;19;19929;-56
2022/03/06 03:45:57;;;;;;;;;;;;;;;1.06;65.47;102374.34;7392398;19;19918;-56
2022/03/06 03:48:26;;;;;;;;;;;;;;;1.03;65.10;102369.97;7393449;19;19923;-55
2022/03/06 03:50:54;;;;;;;;;;;;;;;1.09;65.18;102369.22;7396402;19;20292;-57
2022/03/06 03:53:23;;;;;;;;;;;;;;;1.09;65.20;102376.97;7398306;19;19994;-54
2022/03/06 03:55:52;;;;;;;;;;;;;;;1.11;64.92;102371.00;7394270;19;20273;-56
2022/03/06 03:58:21;;;;;;;;;;;;;;;1.09;65.04;102382.13;7393925;19;20248;-53
2022/03/06 04:00:51;;;;;;;;;;;;;;;1.01;65.72;102377.69;7393008;19;19944;-55
2022/03/06 04:03:22;;;;;;;;;;;;;;;1.00;65.72;102378.56;7394475;19;19923;-54
2022/03/06 04:05:51;;;;;;;;;;;;;;;0.94;65.77;102380.97;7393643;19;19922;-61
2022/03/06 04:08:20;;;;;;;;;;;;;;;1.04;65.88;102376.88;7394113;19;20267;-62
2022/03/06 04:10:48;;;;;;;;;;;;;;;1.01;65.62;102390.59;7390617;19;19930;-57
2022/03/06 04:13:17;;;;;;;;;;;;;;;0.86;66.01;102388.56;7392572;19;19977;-57
2022/03/06 04:15:47;;;;;;;;;;;;;;;0.98;66.04;102389.69;7392102;19;20289;-58
2022/03/06 04:18:15;;;;;;;;;;;;;;;0.93;66.35;102392.16;7390653;19;20666;-59
2022/03/06 04:20:47;;;;;;;;;;;;;;;1.07;65.89;102394.16;7389550;19;19929;-56
2022/03/06 04:23:15;;;;;;;;;;;;;;;0.84;66.38;102407.44;7393778;19;19911;-59
2022/03/06 04:25:44;;;;;;;;;;;;;;;0.93;65.87;102399.91;7395048;19;19925;-57
2022/03/06 04:28:12;;;;;;;;;;;;;;;1.03;65.88;102408.69;7390102;19;19936;-60
2022/03/06 04:30:41;;;;;;;;;;;;;;;0.90;66.01;102409.28;7388878;19;19949;-54
2022/03/06 04:33:10;;;;;;;;;;;;;;;0.88;66.18;102417.00;7390591;19;19922;-55
2022/03/06 04:35:38;;;;;;;;;;;;;;;0.71;66.46;102416.63;7390084;19;19923;-58
2022/03/06 04:38:09;;;;;;;;;;;;;;;0.55;66.91;102422.28;7391931;19;19930;-54
2022/03/06 04:40:38;;;;;;;;;;;;;;;0.51;67.39;102424.75;7388645;19;19925;-59
2022/03/06 04:43:06;;;;;;;;;;;;;;;0.55;67.16;102424.84;7389315;19;19929;-58
2022/03/06 04:45:35;;;;;;;;;;;;;;;0.56;67.50;102429.16;7388976;19;20324;-59
2022/03/06 04:48:04;;;;;;;;;;;;;;;0.53;67.24;102440.31;7389062;19;19922;-55
2022/03/06 04:50:32;;;;;;;;;;;;;;;0.45;67.54;102447.84;7389353;19;19918;-59
2022/03/06 04:53:01;;;;;;;;;;;;;;;0.50;67.96;102446.25;7392455;19;20581;-57
2022/03/06 04:55:32;;;;;;;;;;;;;;;0.67;67.00;102443.19;7389394;19;20220;-59
2022/03/06 04:58:01;;;;;;;;;;;;;;;0.55;67.24;102445.50;7390549;19;19927;-55
2022/03/06 05:00:30;;;;;;;;;;;;;;;0.44;67.96;102456.41;7389019;19;19914;-55
2022/03/06 05:02:58;;;;;;;;;;;;;;;0.49;67.83;102456.53;7390866;19;19918;-59
2022/03/06 05:05:27;;;;;;;;;;;;;;;0.32;68.19;102456.97;7389812;19;19925;-60
2022/03/06 05:07:56;;;;;;;;;;;;;;;0.27;68.19;102458.59;7392136;19;19919;-58
2022/03/06 05:10:24;;;;;;;;;;;;;;;0.27;68.15;102458.59;7389187;19;19934;-59
2022/03/06 05:12:56;;;;;;;;;;;;;;;0.26;68.63;102451.69;7389870;19;19922;-58
2022/03/06 05:15:24;;;;;;;;;;;;;;;0.30;68.61;102461.25;7389855;19;19926;-56
2022/03/06 05:17:53;;;;;;;;;;;;;;;0.30;68.79;102453.50;7384720;19;19945;-62
2022/03/06 05:20:22;;;;;;;;;;;;;;;0.36;68.56;102455.38;7388477;19;19986;-57
2022/03/06 05:22:51;;;;;;;;;;;;;;;0.39;68.14;102457.13;7391713;19;19931;-58
2022/03/06 05:25:19;;;;;;;;;;;;;;;0.32;68.36;102467.28;7388325;19;20368;-59
2022/03/06 05:27:48;;;;;;;;;;;;;;;0.47;68.46;102461.66;7388986;19;19926;-57
2022/03/06 05:30:19;;;;;;;;;;;;;;;0.36;68.10;102459.63;7387363;19;19920;-54
2022/03/06 05:32:48;;;;;;;;;;;;;;;0.42;68.36;102460.66;7389166;19;19925;-60
2022/03/06 05:35:16;;;;;;;;;;;;;;;0.47;68.01;102464.25;7388455;19;19935;-61
2022/03/06 05:37:45;;;;;;;;;;;;;;;0.62;67.60;102466.28;7386682;19;19926;-58
2022/03/06 05:40:14;;;;;;;;;;;;;;;0.38;68.33;102473.44;7387697;19;19919;-61
2022/03/06 05:42:42;;;;;;;;;;;;;;;0.57;67.92;102469.59;7387604;19;19923;-57
2022/03/06 05:45:11;;;;;;;;;;;;;;;0.77;67.46;102477.81;7389126;19;19918;-59
2022/03/06 05:47:43;;;;;;;;;;;;;;;0.65;67.58;102471.53;7388146;19;19986;-57
2022/03/06 05:50:12;;;;;;;;;;;;;;;0.80;66.97;102476.19;7387264;19;19922;-59
2022/03/06 05:52:42;;;;;;;;;;;;;;;0.71;66.55;102483.69;7389016;19;19922;-61
2022/03/06 05:55:11;;;;;;;;;;;;;;;0.53;67.52;102481.56;7387553;19;20357;-56
2022/03/06 05:57:40;;;;;;;;;;;;;;;0.37;67.80;102490.59;7386415;19;20237;-58
2022/03/06 06:00:10;;;;;;;;;;;;;;;0.44;67.79;102486.47;7385015;19;19922;-58
2022/03/06 06:02:38;;;;;;;;;;;;;;;0.52;68.14;102479.81;7388035;19;20003;-55
2022/03/06 06:05:11;;;;;;;;;;;;;;;0.60;67.81;102493.78;7387292;19;19923;-56
2022/03/06 06:07:39;;;;;;;;;;;;;;;0.54;67.76;102495.31;7388797;19;19922;-56
2022/03/06 06:10:08;;;;;;;;;;;;;;;0.64;67.34;102503.31;7384241;19;19926;-59
2022/03/06 06:12:37;;;;;;;;;;;;;;;0.73;67.49;102505.25;7387626;19;19935;-57
2022/03/06 06:15:06;;;;;;;;;;;;;;;0.56;67.36;102506.53;7388055;19;19929;-56
2022/03/06 06:17:35;;;;;;;;;;;;;;;0.62;67.65;102506.72;7385870;19;19987;-55
2022/03/06 06:20:04;;;;;;;;;;;;;;;0.71;67.33;102506.91;7384632;19;19929;-55
2022/03/06 06:22:35;;;;;;;;;;;;;;;0.54;67.48;102510.81;7390606;19;19926;-58
2022/03/06 06:25:05;;;;;;;;;;;;;;;0.46;67.91;102519.22;7387838;19;20340;-57
2022/03/06 06:27:33;;;;;;;;;;;;;;;0.50;68.01;102522.72;7387834;19;19918;-59
2022/03/06 06:30:02;;;;;;;;;;;;;;;0.28;68.97;102517.03;7391883;19;19927;-57
2022/03/06 06:32:31;;;;;;;;;;;;;;;0.15;69.68;102517.56;7395323;19;19927;-61
2022/03/06 06:34:59;;;;;;;;;;;;;;;-0.01;70.10;102514.56;7395271;19;19995;-56
2022/03/06 06:37:28;;;;;;;;;;;;;;;0.20;69.92;102523.72;7396644;19;20280;-59
2022/03/06 06:39:59;;;;;;;;;;;;;;;0.25;69.92;102527.28;7391588;19;19938;-60
2022/03/06 06:42:27;;;;;;;;;;;;;;;0.20;70.30;102530.56;7394631;19;19919;-58
2022/03/06 06:44:56;;;;;;;;;;;;;;;0.25;70.24;102532.44;7394904;19;20241;-58
2022/03/06 06:47:24;;;;;;;;;;;;;;;0.16;70.55;102538.22;7393653;19;19925;-59
2022/03/06 06:49:53;;;;;;;;;;;;;;;0.07;71.03;102530.25;7392825;19;19922;-58
2022/03/06 06:52:22;;;;;;;;;;;;;;;0.05;71.43;102538.78;7395870;19;20404;-58
2022/03/06 06:54:50;;;;;;;;;;;;;;;0.02;71.62;102549.88;7394609;19;19919;-57
2022/03/06 06:57:21;;;;;;;;;;;;;;;0.05;71.74;102539.63;7392380;19;20385;-58
2022/03/06 06:59:50;;;;;;;;;;;;;;;0.09;72.35;102544.03;7390788;19;20261;-55
2022/03/06 07:02:18;;;;;;;;;;;;;;;0.23;71.73;102544.41;7394296;19;19918;-55
2022/03/06 07:04:47;;;;;;;;;;;;;;;0.24;71.71;102553.88;7394289;19;19919;-57
2022/03/06 07:07:16;;;;;;;;;;;;;;;0.23;71.84;102559.88;7397267;19;19911;-59
2022/03/06 07:09:44;;;;;;;;;;;;;;;0.33;71.67;102559.28;7391965;19;19915;-56
2022/03/06 07:12:13;;;;;;;;;;;;;;;0.49;71.51;102567.44;7394398;19;20233;-58
2022/03/06 07:14:44;;;;;;;;;;;;;;;0.43;71.39;102559.53;7397922;19;19939;-58
2022/03/06 07:17:13;;;;;;;;;;;;;;;0.42;71.88;102573.28;7392282;19;20332;-59
2022/03/06 07:19:41;;;;;;;;;;;;;;;0.38;72.07;102563.69;7391362;19;19914;-54
2022/03/06 07:22:10;;;;;;;;;;;;;;;0.44;72.07;102569.00;7395888;19;19956;-53
2022/03/06 07:24:38;;;;;;;;;;;;;;;0.31;72.92;102567.81;7393219;19;19918;-53
2022/03/06 07:27:07;;;;;;;;;;;;;;;0.40;72.73;102569.75;7392724;19;19925;-55
2022/03/06 07:29:36;;;;;;;;;;;;;;;0.51;72.65;102578.66;7390389;19;19924;-58
2022/03/06 07:32:07;;;;;;;;;;;;;;;0.45;72.78;102578.50;7392331;19;19919;-57
2022/03/06 07:34:36;;;;;;;;;;;;;;;0.43;73.26;102582.72;7392194;19;20644;-58
2022/03/06 07:37:05;;;;;;;;;;;;;;;0.76;72.54;102584.44;7394318;19;19926;-60
2022/03/06 07:39:33;;;;;;;;;;;;;;;0.82;72.07;102589.75;7387849;19;19927;-57
2022/03/06 07:42:02;;;;;;;;;;;;;;;0.66;72.36;102591.94;7392087;19;19918;-57
2022/03/06 07:44:31;;;;;;;;;;;;;;;0.76;72.75;102599.91;7390260;19;19922;-57
2022/03/06 07:47:00;;;;;;;;;;;;;;;0.76;72.68;102597.31;7392723;19;20353;-53
2022/03/06 07:49:31;;;;;;;;;;;;;;;0.77;72.79;102599.06;7389358;19;19922;-58
2022/03/06 07:51:59;;;;;;;;;;;;;;;0.88;72.23;102600.22;7394171;19;20019;-56
2022/03/06 07:54:28;;;;;;;;;;;;;;;0.95;71.95;102599.53;7392263;19;20327;-56
2022/03/06 07:56:57;;;;;;;;;;;;;;;1.05;71.81;102592.91;7391018;19;20340;-57
2022/03/06 07:59:26;;;;;;;;;;;;;;;1.17;71.36;102600.03;7389396;19;19933;-58
2022/03/06 08:01:55;;;;;;;;;;;;;;;1.24;71.16;102609.69;7391565;19;19990;-58
2022/03/06 08:04:23;;;;;;;;;;;;;;;1.26;71.14;102614.88;7391048;19;19929;-56
2022/03/06 08:06:54;;;;;;;;;;;;;;;1.32;70.70;102623.66;7395136;19;19929;-59
2022/03/06 08:09:24;;;;;;;;;;;;;;;1.23;71.44;102625.13;7389647;19;20538;-59
2022/03/06 08:11:53;;;;;;;;;;;;;;;0.98;72.55;102625.41;7392356;19;20332;-56
2022/03/06 08:14:21;;;;;;;;;;;;;;;1.09;72.36;102628.28;7396713;19;20400;-55
2022/03/06 08:16:50;;;;;;;;;;;;;;;1.20;71.94;102623.34;7392932;19;19926;-58
2022/03/06 08:19:19;;;;;;;;;;;;;;;1.40;71.43;102639.31;7391842;19;19933;-59
2022/03/06 08:21:48;;;;;;;;;;;;;;;1.42;71.42;102636.75;7393598;19;19914;-56
2022/03/06 08:24:19;;;;;;;;;;;;;;;1.46;71.01;102626.56;7392913;19;19919;-58
2022/03/06 08:26:48;;;;;;;;;;;;;;;1.51;70.69;102640.44;7391905;19;19922;-58
2022/03/06 08:29:16;;;;;;;;;;;;;;;1.51;70.85;102645.59;7389667;19;20352;-58
2022/03/06 08:31:45;;;;;;;;;;;;;;;1.57;70.79;102639.72;7392664;19;19930;-59
2022/03/06 08:34:13;;;;;;;;;;;;;;;1.57;70.67;102644.88;7392300;19;19925;-55
2022/03/06 08:36:42;;;;;;;;;;;;;;;1.73;70.37;102648.66;7393897;19;19923;-52
2022/03/06 08:39:10;;;;;;;;;;;;;;;1.95;69.73;102641.38;7389001;19;19926;-58
2022/03/06 08:41:42;;;;;;;;;;;;;;;1.85;70.11;102648.09;7392405;19;19923;-53
2022/03/06 08:44:11;;;;;;;;;;;;;;;1.82;70.03;102643.72;7391341;19;19918;-54
2022/03/06 08:46:40;;;;;;;;;;;;;;;1.86;69.81;102639.47;7391583;19;19919;-56
2022/03/06 08:49:09;;;;;;;;;;;;;;;1.94;70.05;102639.66;7389289;19;19934;-58
2022/03/06 08:51:38;;;;;;;;;;;;;;;2.08;69.46;102648.56;7391312;19;19919;-59
2022/03/06 08:54:06;;;;;;;;;;;;;;;2.05;69.62;102649.38;7391760;19;20202;-59
2022/03/06 08:56:35;;;;;;;;;;;;;;;2.19;68.97;102638.41;7390915;19;19933;-56
2022/03/06 08:59:06;;;;;;;;;;;;;;;2.22;68.79;102647.13;7389039;19;19929;-56
2022/03/06 09:01:35;;;;;;;;;;;;;;;2.29;68.87;102653.28;7390363;19;19921;-58
2022/03/06 09:04:03;;;;;;;;;;;;;;;2.38;68.78;102653.47;7390247;19;19918;-54
2022/03/06 09:06:32;;;;;;;;;;;;;;;2.53;68.01;102652.00;7392539;19;20256;-60
2022/03/06 09:09:00;;;;;;;;;;;;;;;2.58;67.73;102651.25;7389853;19;20012;-57
2022/03/06 09:11:29;;;;;;;;;;;;;;;2.79;67.06;102641.25;7391665;19;19927;-55
2022/03/06 09:13:59;;;;;;;;;;;;;;;3.09;66.62;102648.69;7392913;19;19933;-56
2022/03/06 09:16:30;;;;;;;;;;;;;;;3.19;65.65;102647.13;7390858;19;20011;-57
2022/03/06 09:18:59;;;;;;;;;;;;;;;3.14;65.01;102647.03;7389516;19;19915;-58
2022/03/06 09:21:28;;;;;;;;;;;;;;;3.17;64.95;102646.22;7391955;19;19934;-58
2022/03/06 09:23:56;;;;;;;;;;;;;;;3.24;64.68;102638.56;7393499;19;19914;-59
2022/03/06 09:26:25;;;;;;;;;;;;;;;3.43;63.07;102642.31;7390339;19;19941;-58
2022/03/06 09:28:54;;;;;;;;;;;;;;;3.54;63.10;102644.16;7389584;19;19982;-60
2022/03/06 09:31:22;;;;;;;;;;;;;;;3.70;62.40;102651.34;7389430;19;20380;-58
2022/03/06 09:33:53;;;;;;;;;;;;;;;3.80;61.89;102644.56;7389082;19;19983;-59
2022/03/06 09:36:22;;;;;;;;;;;;;;;3.87;61.01;102645.50;7393453;19;20236;-58
2022/03/06 09:38:50;;;;;;;;;;;;;;;3.98;60.83;102646.50;7387118;19;19922;-58
2022/03/06 09:41:21;;;;;;;;;;;;;;;3.92;61.24;102659.41;7389287;19;19918;-59
2022/03/06 09:43:50;;;;;;;;;;;;;;;4.03;60.50;102663.00;7389885;19;19949;-57
2022/03/06 09:46:22;;;;;;;;;;;;;;;4.22;60.93;102663.25;7390089;19;19923;-58
2022/03/06 09:48:53;;;;;;;;;;;;;;;4.21;59.34;102653.69;7388558;19;19926;-60
2022/03/06 09:51:22;;;;;;;;;;;;;;;4.24;58.75;102645.94;7392474;19;20328;-57
2022/03/06 09:53:51;;;;;;;;;;;;;;;4.36;59.54;102655.63;7390029;19;19923;-59
2022/03/06 09:56:19;;;;;;;;;;;;;;;4.43;58.67;102649.66;7390998;19;19947;-56
2022/03/06 09:58:49;;;;;;;;;;;;;;;4.56;57.65;102658.44;7388051;19;20329;-60
2022/03/06 10:01:17;;;;;;;;;;;;;;;4.70;57.68;102645.56;7393333;19;19922;-57
2022/03/06 10:03:46;;;;;;;;;;;;;;;4.81;57.09;102641.34;7403319;19;19919;-56
2022/03/06 10:06:17;;;;;;;;;;;;;;;4.95;56.01;102642.34;7404154;19;20286;-60
2022/03/06 10:08:45;;;;;;;;;;;;;;;5.13;56.14;102638.16;7407962;19;19915;-60
2022/03/06 10:11:16;;;;;;;;;;;;;;;5.15;55.70;102642.50;7401622;19;20019;-60
2022/03/06 10:13:46;;;;;;;;;;;;;;;5.26;55.22;102640.00;7400859;19;19987;-60
2022/03/06 10:16:15;;;;;;;;;;;;;;;5.30;53.53;102644.38;7396321;19;19922;-60
2022/03/06 10:18:45;;;;;;;;;;;;;;;5.40;53.74;102636.63;7395490;19;19926;-62
2022/03/06 10:21:26;;;;;;;;;;;;;;;5.49;53.63;102637.56;7399282;19;19922;-60
2022/03/06 10:23:57;;;;;;;;;;;;;;;5.60;52.58;102640.22;7399999;19;19922;-61
2022/03/06 10:26:26;;;;;;;;;;;;;;;5.81;51.90;102644.66;7391725;19;20367;-63
2022/03/06 10:28:56;;;;;;;;;;;;;;;5.79;50.75;102642.91;7397138;19;20263;-60
2022/03/06 10:31:25;;;;;;;;;;;;;;;5.83;50.62;102640.34;7396499;19;19926;-62
2022/03/06 10:34:01;;;;;;;;;;;;;;;5.78;51.07;102642.06;7396458;19;19935;-62
2022/03/06 10:36:43;;;;;;;;;;;;;;;5.86;50.88;102652.47;7397884;19;19964;-61
2022/03/06 10:39:13;;;;;;;;;;;;;;;6.00;50.59;102650.88;7394036;19;19922;-61
2022/03/06 10:41:43;;;;;;;;;;;;;;;6.14;50.28;102637.91;7396551;19;19949;-65
2022/03/06 10:44:12;;;;;;;;;;;;;;;6.05;49.69;102636.13;7397148;19;19926;-64
2022/03/06 10:46:41;;;;;;;;;;;;;;;6.12;49.86;102643.94;7394385;19;19917;-59
2022/03/06 10:49:12;;;;;;;;;;;;;;;6.17;48.72;102643.09;7396097;19;19925;-61
2022/03/06 10:51:45;;;;;;;;;;;;;;;6.18;48.61;102641.41;7399429;19;19938;-61
2022/03/06 10:54:14;;;;;;;;;;;;;;;6.18;48.94;102639.66;7404144;19;19961;-58
2022/03/06 10:56:44;;;;;;;;;;;;;;;6.22;47.93;102635.34;7400980;19;19926;-57
2022/03/06 10:59:12;;;;;;;;;;;;;;;6.26;47.64;102644.00;7399730;19;20272;-60
2022/03/06 11:01:41;;;;;;;;;;;;;;;6.35;47.34;102647.50;7401304;19;20459;-58
2022/03/06 11:04:10;;;;;;;;;;;;;;;6.19;47.28;102641.41;7401423;19;19930;-62
2022/03/06 11:06:41;;;;;;;;;;;;;;;6.32;48.09;102650.13;7397675;19;19927;-61
2022/03/06 11:09:15;;;;;;;;;;;;;;;6.52;47.29;102654.50;7395368;19;19923;-61
2022/03/06 11:11:45;;;;;;;;;;;;;;;6.51;45.42;102640.59;7395856;19;19941;-61
2022/03/06 11:14:14;;;;;;;;;;;;;;;6.37;46.02;102656.19;7398283;19;19930;-61
2022/03/06 11:16:43;;;;;;;;;;;;;;;6.01;46.54;102642.19;7392288;19;19962;-62
2022/03/06 11:19:12;;;;;;;;;;;;;;;6.03;45.86;102645.69;7392958;19;19938;-63
2022/03/06 11:21:42;;;;;;;;;;;;;;;6.01;46.65;102643.94;7398018;19;20305;-62
2022/03/06 11:24:15;;;;;;;;;;;;;;;6.20;45.89;102650.06;7395120;19;20284;-60
2022/03/06 11:26:57;;;;;;;;;;;;;;;6.22;45.91;102651.81;7394139;19;19939;-61
2022/03/06 11:29:42;;;;;;;;;;;;;;;6.17;45.55;102655.25;7394617;19;19914;-60
2022/03/06 11:32:11;;;;;;;;;;;;;;;6.01;44.97;102643.94;7395369;19;19926;-60
2022/03/06 11:34:42;;;;;;;;;;;;;;;6.15;45.29;102642.25;7394867;19;19919;-63
2022/03/06 11:37:15;;;;;;;;;;;;;;;6.16;43.90;102646.59;7393917;19;20376;-61
2022/03/06 11:39:50;;;;;;;;;;;;;;;6.23;43.98;102650.06;7392284;19;20263;-61
2022/03/06 11:42:34;;;;;;;;;;;;;;;6.27;44.44;102645.75;7396753;19;19930;-60
2022/03/06 11:45:02;;;;;;;;;;;;;;;6.41;44.21;102641.47;7394519;19;19914;-61
2022/03/06 11:47:40;;;;;;;;;;;;;;;6.54;43.53;102640.59;7392577;19;19918;-61
2022/03/06 11:50:10;;;;;;;;;;;;;;;6.78;43.38;102636.31;7393239;19;20000;-61
2022/03/06 11:52:41;;;;;;;;;;;;;;;6.85;43.41;102637.16;7393340;19;19919;-62
2022/03/06 11:55:25;;;;;;;;;;;;;;;6.98;43.43;102628.50;7393825;19;19923;-62
2022/03/06 11:57:56;;;;;;;;;;;;;;;6.91;43.88;102630.22;7396528;19;20019;-61
2022/03/06 12:00:26;;;;;;;;;;;;;;;6.97;44.68;102626.75;7393886;19;19915;-61
2022/03/06 12:02:56;;;;;;;;;;;;;;;7.03;44.34;102623.28;7393879;19;20244;-60
2022/03/06 12:05:25;;;;;;;;;;;;;;;7.14;44.45;102616.34;7392965;19;19934;-61
2022/03/06 12:07:54;;;;;;;;;;;;;;;7.18;43.97;102611.97;7393492;19;19927;-61
2022/03/06 12:10:22;;;;;;;;;;;;;;;7.18;42.94;102618.06;7392405;19;19923;-58
2022/03/06 12:13:00;;;;;;;;;;;;;;;7.20;43.50;102613.72;7396429;19;19919;-60
2022/03/06 12:15:30;;;;;;;;;;;;;;;7.06;43.72;102618.06;7392549;19;20328;-61
2022/03/06 12:18:04;;;;;;;;;;;;;;;6.98;43.43;102614.59;7391796;19;19923;-59
2022/03/06 12:20:43;;;;;;;;;;;;;;;6.84;44.24;102605.03;7392241;19;19918;-60
2022/03/06 12:23:22;;;;;;;;;;;;;;;6.87;44.66;102597.22;7393111;19;19914;-58
2022/03/06 12:25:56;;;;;;;;;;;;;;;7.04;44.34;102596.38;7391416;19;19929;-59
2022/03/06 12:28:31;;;;;;;;;;;;;;;7.16;43.17;102598.06;7398222;19;19929;-58
2022/03/06 12:30:59;;;;;;;;;;;;;;;7.17;42.14;102592.88;7392371;19;19972;-58
2022/03/06 12:33:37;;;;;;;;;;;;;;;7.40;42.67;102587.59;7392704;19;20256;-60
2022/03/06 12:36:26;;;;;;;;;;;;;;;7.43;41.31;102591.94;7392220;19;19926;-59
2022/03/06 12:38:56;;;;;;;;;;;;;;;7.57;42.34;102597.13;7391773;19;19914;-60
2022/03/06 12:41:25;;;;;;;;;;;;;;;7.63;41.10;102607.53;7394338;19;19919;-64
2022/03/06 12:44:02;;;;;;;;;;;;;;;7.65;41.72;102600.59;7390621;19;19911;-59
2022/03/06 12:46:31;;;;;;;;;;;;;;;7.60;40.52;102590.16;7389940;19;20025;-57
2022/03/06 12:48:59;;;;;;;;;;;;;;;7.71;39.78;102591.84;7391779;19;19915;-60
2022/03/06 12:51:33;;;;;;;;;;;;;;;7.25;40.17;102591.13;7391872;19;19950;-60
2022/03/06 12:54:02;;;;;;;;;;;;;;;7.09;42.40;102587.66;7391841;19;19918;-62
2022/03/06 12:56:32;;;;;;;;;;;;;;;7.15;41.26;102580.69;7392200;19;19918;-60
2022/03/06 12:59:07;;;;;;;;;;;;;;;7.32;41.12;102581.56;7391824;19;20275;-60
2022/03/06 13:01:36;;;;;;;;;;;;;;;7.72;40.92;102583.16;7392726;19;19922;-61